Time;durP1;ratioP1;P1;durP2;ratioP2;P2;SDS_P1;SDS_P2;PMS_P1;PMS_P2;Temp;Humidity;BMP_temperature;BMP_pressure;BME280_temperature;BME280_humidity;BME280_pressure;Samples;Min_cycle;Max_cycle;Signal;HPM_P1;HPM_P2
2022/11/02 00:02:14;;;;;;;8.33;6.63;;;13.60;86.60;;;;;;5035875;28;20183;-62
2022/11/02 00:04:39;;;;;;;10.90;6.53;;;13.60;86.90;;;;;;5068252;28;20202;-62
2022/11/02 00:07:05;;;;;;;7.03;6.30;;;13.60;87.00;;;;;;5016479;28;20227;-62
2022/11/02 00:09:31;;;;;;;9.30;6.57;;;13.60;86.90;;;;;;5017409;28;20188;-61
2022/11/02 00:11:57;;;;;;;8.90;6.70;;;13.60;87.10;;;;;;5017880;28;20183;-62
2022/11/02 00:14:22;;;;;;;11.17;7.20;;;13.50;87.20;;;;;;5061100;28;20186;-62
2022/11/02 00:16:48;;;;;;;7.50;5.80;;;13.50;87.10;;;;;;5041179;28;20229;-62
2022/11/02 00:19:14;;;;;;;9.70;6.40;;;13.50;87.20;;;;;;5054663;28;20187;-62
2022/11/02 00:21:40;;;;;;;7.87;5.57;;;13.50;87.50;;;;;;5039402;28;20187;-62
2022/11/02 00:24:07;;;;;;;8.37;7.00;;;13.50;87.50;;;;;;5026102;28;20195;-62
2022/11/02 00:26:35;;;;;;;8.70;6.60;;;13.50;87.50;;;;;;5022574;28;20301;-62
2022/11/02 00:29:02;;;;;;;13.97;6.50;;;13.50;87.90;;;;;;5023769;28;20187;-62
2022/11/02 00:31:27;;;;;;;8.00;6.63;;;13.50;88.10;;;;;;5052319;28;20279;-62
2022/11/02 00:33:53;;;;;;;8.00;6.13;;;13.40;88.20;;;;;;5026059;28;20278;-62
2022/11/02 00:36:19;;;;;;;7.47;6.73;;;13.40;88.30;;;;;;5009758;28;20191;-61
2022/11/02 00:38:45;;;;;;;9.20;6.97;;;13.40;88.40;;;;;;5036867;28;20192;-62
2022/11/02 00:41:11;;;;;;;11.20;6.90;;;13.40;88.60;;;;;;5035589;28;20195;-62
2022/11/02 00:43:37;;;;;;;9.50;6.73;;;13.30;88.60;;;;;;5007213;28;20206;-62
2022/11/02 00:46:03;;;;;;;11.53;6.97;;;13.30;88.80;;;;;;5035154;28;20203;-62
2022/11/02 00:48:29;;;;;;;9.53;7.07;;;13.30;88.70;;;;;;5037164;28;20198;-62
2022/11/02 00:50:55;;;;;;;8.67;6.70;;;13.30;89.00;;;;;;5032053;28;20188;-62
2022/11/02 00:53:20;;;;;;;10.90;7.60;;;13.30;89.10;;;;;;5037567;28;20186;-62
2022/11/02 00:55:46;;;;;;;8.10;6.77;;;13.30;89.10;;;;;;5032059;28;20234;-62
2022/11/02 00:58:12;;;;;;;8.47;6.37;;;13.20;89.20;;;;;;5069145;28;20186;-62
2022/11/02 01:00:38;;;;;;;9.20;7.30;;;13.20;89.30;;;;;;5035561;28;20183;-62
2022/11/02 01:03:04;;;;;;;7.93;6.03;;;13.30;89.40;;;;;;5041153;28;20197;-62
2022/11/02 01:05:30;;;;;;;7.60;6.60;;;13.30;89.40;;;;;;5028154;28;20212;-62
2022/11/02 01:07:56;;;;;;;8.93;6.63;;;13.30;89.50;;;;;;5033383;28;20219;-62
2022/11/02 01:10:22;;;;;;;8.63;7.30;;;13.30;89.50;;;;;;5008807;28;20202;-61
2022/11/02 01:12:48;;;;;;;9.43;6.67;;;13.30;89.60;;;;;;5054847;28;20190;-62
2022/11/02 01:15:13;;;;;;;9.83;6.87;;;13.30;89.60;;;;;;5016473;28;20191;-62
2022/11/02 01:17:39;;;;;;;9.47;6.90;;;13.30;89.60;;;;;;5032335;28;20187;-62
2022/11/02 01:20:06;;;;;;;10.53;7.60;;;13.20;89.60;;;;;;5045441;28;20194;-61
2022/11/02 01:22:32;;;;;;;7.77;6.97;;;13.20;89.60;;;;;;5033770;28;20195;-61
2022/11/02 01:24:57;;;;;;;8.57;6.83;;;13.20;89.70;;;;;;5017253;28;20205;-61
2022/11/02 01:27:24;;;;;;;10.77;6.90;;;13.30;89.80;;;;;;5015980;28;20321;-61
2022/11/02 01:29:49;;;;;;;8.57;7.63;;;13.20;89.80;;;;;;5013705;28;20194;-62
2022/11/02 01:32:15;;;;;;;8.93;7.83;;;13.20;89.90;;;;;;5039177;28;20265;-62
2022/11/02 01:34:41;;;;;;;12.60;7.93;;;13.20;89.90;;;;;;5051906;28;20250;-62
2022/11/02 01:37:06;;;;;;;11.83;7.80;;;13.20;89.90;;;;;;5033261;28;20252;-62
2022/11/02 01:39:32;;;;;;;9.33;7.40;;;13.20;90.00;;;;;;5013809;28;20276;-62
2022/11/02 01:41:58;;;;;;;10.73;8.30;;;13.20;90.00;;;;;;5016811;28;20199;-62
2022/11/02 01:44:30;;;;;;;10.20;7.90;;;13.20;90.00;;;;;;5021173;28;20630;-62
2022/11/02 01:47:11;;;;;;;9.10;7.73;;;13.10;90.10;;;;;;5033071;28;20221;-62
2022/11/02 01:49:41;;;;;;;8.10;7.27;;;13.00;90.40;;;;;;5034427;28;20199;-62
2022/11/02 01:52:12;;;;;;;8.47;7.23;;;13.00;90.50;;;;;;5034413;28;20186;-62
2022/11/02 01:54:54;;;;;;;9.87;7.40;;;13.10;90.50;;;;;;5044854;28;20187;-62
2022/11/02 01:57:21;;;;;;;10.83;8.70;;;13.10;90.40;;;;;;5032176;28;20244;-62
2022/11/02 02:00:00;;;;;;;8.70;7.57;;;13.10;90.40;;;;;;5005877;28;20191;-62
2022/11/02 02:02:26;;;;;;;9.17;7.53;;;13.10;90.40;;;;;;5033499;28;20253;-62
2022/11/02 02:05:01;;;;;;;8.73;7.03;;;13.20;90.50;;;;;;5033236;28;20202;-62
2022/11/02 02:07:29;;;;;;;9.53;6.80;;;13.20;90.30;;;;;;5045116;28;20205;-62
2022/11/02 02:09:55;;;;;;;8.27;7.50;;;13.20;90.40;;;;;;5041424;28;20182;-62
2022/11/02 02:12:22;;;;;;;9.97;7.27;;;13.10;90.40;;;;;;5018050;28;20252;-62
2022/11/02 02:14:48;;;;;;;12.90;7.73;;;13.10;90.40;;;;;;5037911;28;20195;-62
2022/11/02 02:17:23;;;;;;;10.00;7.13;;;13.10;90.30;;;;;;5017626;28;20286;-62
2022/11/02 02:20:16;;;;;;;13.50;8.50;;;13.10;90.40;;;;;;5027594;28;20193;-62
2022/11/02 02:22:44;;;;;;;11.57;8.23;;;13.10;90.40;;;;;;5029028;28;20205;-62
2022/11/02 02:25:25;;;;;;;9.60;7.50;;;13.10;90.40;;;;;;5033803;28;20262;-62
2022/11/02 02:28:09;;;;;;;9.47;7.10;;;13.10;90.40;;;;;;5037849;28;20213;-62
2022/11/02 02:31:05;;;;;;;8.80;7.37;;;13.10;90.30;;;;;;5033065;28;20180;-62
2022/11/02 02:33:45;;;;;;;11.53;7.13;;;13.20;90.30;;;;;;5020989;28;20190;-62
2022/11/02 02:36:33;;;;;;;9.10;8.20;;;13.10;90.30;;;;;;5030575;28;20534;-62
2022/11/02 02:39:09;;;;;;;8.13;7.20;;;13.10;90.20;;;;;;5065516;28;20186;-62
2022/11/02 02:41:39;;;;;;;11.37;7.77;;;13.10;90.30;;;;;;5033440;28;20190;-62
2022/11/02 02:44:09;;;;;;;7.43;6.73;;;13.10;90.40;;;;;;5033346;28;20191;-62
2022/11/02 02:46:47;;;;;;;7.77;6.43;;;13.10;90.40;;;;;;5032354;28;20220;-62
2022/11/02 02:49:19;;;;;;;7.53;6.83;;;13.20;90.40;;;;;;5045298;28;20180;-62
2022/11/02 02:51:46;;;;;;;9.93;6.80;;;13.10;90.40;;;;;;5030827;28;20187;-62
2022/11/02 02:54:20;;;;;;;7.87;6.80;;;13.10;90.40;;;;;;5016572;28;20191;-62
2022/11/02 02:56:54;;;;;;;9.73;6.53;;;13.20;90.20;;;;;;5040192;28;20268;-62
2022/11/02 02:59:25;;;;;;;8.23;6.03;;;13.20;90.20;;;;;;5032284;28;20195;-62
2022/11/02 03:01:51;;;;;;;10.23;7.20;;;13.20;90.20;;;;;;5029283;28;20191;-62
2022/11/02 03:04:17;;;;;;;8.23;6.07;;;13.10;90.10;;;;;;5019367;28;20298;-62
2022/11/02 03:06:47;;;;;;;8.67;6.53;;;13.20;90.20;;;;;;5018426;28;20291;-62
2022/11/02 03:09:35;;;;;;;7.10;5.93;;;13.20;90.10;;;;;;5044535;28;20196;-62
2022/11/02 03:12:28;;;;;;;10.07;6.57;;;13.20;90.00;;;;;;5022895;28;20195;-62
2022/11/02 03:15:05;;;;;;;9.33;6.37;;;13.20;89.90;;;;;;5047374;28;20215;-62
2022/11/02 03:17:38;;;;;;;10.00;6.57;;;13.10;89.80;;;;;;5041480;28;20193;-62
2022/11/02 03:20:41;;;;;;;7.90;5.97;;;13.10;89.80;;;;;;5047317;28;20198;-62
2022/11/02 03:23:19;;;;;;;11.17;6.77;;;13.10;89.90;;;;;;5047580;28;20191;-62
2022/11/02 03:26:17;;;;;;;8.97;6.53;;;13.10;89.90;;;;;;5030189;28;20210;-62
2022/11/02 03:29:09;;;;;;;6.93;5.97;;;13.10;89.90;;;;;;5036066;28;20283;-62
2022/11/02 03:32:11;;;;;;;6.53;5.77;;;13.00;89.80;;;;;;5034919;28;20187;-62
2022/11/02 03:34:43;;;;;;;7.50;5.67;;;13.00;89.70;;;;;;5034671;28;20203;-62
2022/11/02 03:37:21;;;;;;;6.93;6.17;;;13.00;89.60;;;;;;5036666;28;20199;-62
2022/11/02 03:39:56;;;;;;;10.47;5.80;;;12.90;89.70;;;;;;5036362;28;20210;-62
2022/11/02 03:42:25;;;;;;;8.70;5.87;;;12.90;89.70;;;;;;5031524;28;20211;-62
2022/11/02 03:44:59;;;;;;;7.07;5.13;;;12.80;89.60;;;;;;5043459;28;20195;-62
2022/11/02 03:47:29;;;;;;;9.23;6.20;;;12.80;89.50;;;;;;5040755;28;20240;-62
2022/11/02 03:49:57;;;;;;;9.50;6.10;;;12.80;89.40;;;;;;5023542;28;20213;-62
2022/11/02 03:52:28;;;;;;;9.90;5.37;;;12.80;89.40;;;;;;5068460;28;20203;-62
2022/11/02 03:55:14;;;;;;;8.37;5.67;;;12.80;89.40;;;;;;5076902;28;20187;-62
2022/11/02 03:57:49;;;;;;;7.07;5.60;;;12.70;89.30;;;;;;5021555;28;20199;-62
2022/11/02 04:00:21;;;;;;;7.13;5.03;;;12.70;89.50;;;;;;5024392;28;20208;-62
2022/11/02 04:02:51;;;;;;;6.67;5.33;;;12.70;89.60;;;;;;5033827;28;20211;-62
2022/11/02 04:05:17;;;;;;;7.73;5.63;;;12.70;89.60;;;;;;5040975;28;20244;-62
2022/11/02 04:10:31;;;;;;;6.50;4.63;;;12.70;89.60;;;;;;5038136;28;20273;-62
2022/11/02 04:15:41;;;;;;;6.63;5.40;;;12.70;89.40;;;;;;5043909;28;20226;-62
2022/11/02 04:20:51;;;;;;;10.13;5.67;;;12.70;89.50;;;;;;5052746;28;20226;-62
2022/11/02 04:26:01;;;;;;;8.13;5.40;;;12.60;89.50;;;;;;5035302;28;20206;-62
2022/11/02 04:28:27;;;;;;;6.67;5.20;;;12.60;89.50;;;;;;5034366;28;20194;-62
2022/11/02 04:30:53;;;;;;;5.77;4.87;;;12.60;89.50;;;;;;5016320;28;20187;-62
2022/11/02 04:33:33;;;;;;;9.07;5.13;;;12.60;89.60;;;;;;5017464;28;20227;-62
2022/11/02 04:36:01;;;;;;;6.10;4.80;;;12.60;89.70;;;;;;5019756;28;20229;-62
2022/11/02 04:38:40;;;;;;;8.93;5.67;;;12.60;89.50;;;;;;5035730;28;20190;-62
2022/11/02 04:43:58;;;;;;;7.60;6.00;;;12.50;89.30;;;;;;5033187;28;20194;-60
2022/11/02 04:46:26;;;;;;;11.13;6.23;;;12.50;89.40;;;;;;5033855;28;20215;-62
2022/11/02 04:48:52;;;;;;;5.80;5.00;;;12.50;89.40;;;;;;5036758;28;20190;-61
2022/11/02 04:51:19;;;;;;;11.23;5.17;;;12.40;89.30;;;;;;5033132;28;20183;-62
2022/11/02 04:53:48;;;;;;;7.87;5.37;;;12.30;89.30;;;;;;5033229;28;20241;-62
2022/11/02 04:56:15;;;;;;;6.50;5.67;;;12.40;89.30;;;;;;5069913;28;20237;-62
2022/11/02 04:58:40;;;;;;;7.10;5.40;;;12.30;89.40;;;;;;5042890;28;20220;-62
2022/11/02 05:01:07;;;;;;;8.70;5.73;;;12.30;89.40;;;;;;5017427;28;20195;-62
2022/11/02 05:03:34;;;;;;;10.10;5.37;;;12.30;89.20;;;;;;5060449;28;20248;-62
2022/11/02 05:06:00;;;;;;;7.37;5.33;;;12.30;89.20;;;;;;5017763;28;20198;-62
2022/11/02 05:08:26;;;;;;;6.20;4.83;;;12.30;89.10;;;;;;5040913;28;20178;-62
2022/11/02 05:10:55;;;;;;;7.37;4.87;;;12.20;89.00;;;;;;5038726;28;20190;-62
2022/11/02 05:13:23;;;;;;;5.00;4.50;;;12.10;88.90;;;;;;5048930;28;20187;-62
2022/11/02 05:15:49;;;;;;;7.53;5.00;;;12.10;89.00;;;;;;5036935;28;20186;-62
2022/11/02 05:18:14;;;;;;;9.07;5.37;;;12.20;89.10;;;;;;5035444;28;20186;-62
2022/11/02 05:20:40;;;;;;;6.67;5.50;;;12.10;89.10;;;;;;5033630;28;20195;-62
2022/11/02 05:23:06;;;;;;;12.97;6.03;;;12.10;89.10;;;;;;5007879;28;20187;-62
2022/11/02 05:25:32;;;;;;;7.90;5.53;;;12.00;88.90;;;;;;5020631;28;20183;-64
2022/11/02 05:27:57;;;;;;;8.00;5.50;;;12.00;89.00;;;;;;5014274;28;20260;-64
2022/11/02 05:30:23;;;;;;;7.60;4.90;;;12.00;89.00;;;;;;5011448;28;20269;-64
2022/11/02 05:32:49;;;;;;;12.67;5.20;;;12.00;89.00;;;;;;5035418;28;20183;-64
2022/11/02 05:35:15;;;;;;;9.80;5.43;;;12.00;88.80;;;;;;5043871;28;20179;-64
2022/11/02 05:37:41;;;;;;;9.27;5.60;;;11.90;89.10;;;;;;5020784;28;20195;-64
2022/11/02 05:40:07;;;;;;;10.27;5.20;;;12.00;89.00;;;;;;5038581;28;20202;-64
2022/11/02 05:42:33;;;;;;;8.00;4.80;;;12.00;88.90;;;;;;5036272;28;20185;-64
2022/11/02 05:44:59;;;;;;;6.77;5.33;;;11.90;88.80;;;;;;5018421;28;20191;-64
2022/11/02 05:47:25;;;;;;;5.87;5.03;;;11.90;88.70;;;;;;5049219;28;20222;-64
2022/11/02 05:49:50;;;;;;;8.70;4.97;;;11.90;88.70;;;;;;5032594;28;20229;-64
2022/11/02 05:52:16;;;;;;;8.57;5.23;;;11.90;88.60;;;;;;5026473;28;20182;-64
2022/11/02 05:54:41;;;;;;;5.63;5.00;;;11.90;88.60;;;;;;5022602;28;20190;-64
2022/11/02 05:57:07;;;;;;;7.10;5.33;;;11.90;88.60;;;;;;5018893;28;20265;-64
2022/11/02 05:59:33;;;;;;;7.60;5.37;;;11.80;88.60;;;;;;5024983;28;20194;-64
2022/11/02 06:01:58;;;;;;;6.80;5.37;;;11.80;88.80;;;;;;5037090;28;20199;-64
2022/11/02 06:04:24;;;;;;;6.83;5.40;;;11.80;88.80;;;;;;5038682;28;20210;-64
2022/11/02 06:06:50;;;;;;;8.60;4.70;;;11.80;88.60;;;;;;5020142;28;20224;-64
2022/11/02 06:09:15;;;;;;;8.60;4.80;;;11.80;88.70;;;;;;5025382;28;20191;-64
2022/11/02 06:11:41;;;;;;;8.60;5.70;;;11.80;88.80;;;;;;5031999;28;20188;-64
2022/11/02 06:14:07;;;;;;;7.80;6.13;;;11.80;88.60;;;;;;5017878;28;20187;-64
2022/11/02 06:16:32;;;;;;;8.50;5.33;;;11.80;88.70;;;;;;5015415;28;20191;-64
2022/11/02 06:18:58;;;;;;;7.63;5.33;;;11.80;88.80;;;;;;5007912;28;20194;-64
2022/11/02 06:21:24;;;;;;;9.63;4.57;;;11.80;88.80;;;;;;5028680;28;20187;-64
2022/11/02 06:23:50;;;;;;;7.83;5.23;;;11.80;88.70;;;;;;5016263;28;20592;-64
2022/11/02 06:26:16;;;;;;;7.20;4.73;;;11.80;88.60;;;;;;5017924;28;20207;-64
2022/11/02 06:28:41;;;;;;;14.53;6.63;;;11.80;88.70;;;;;;5028238;28;20187;-64
2022/11/02 06:31:07;;;;;;;11.97;6.40;;;11.70;88.70;;;;;;5035367;28;20194;-65
2022/11/02 06:33:33;;;;;;;8.07;5.57;;;11.70;88.90;;;;;;5036426;28;20328;-65
2022/11/02 06:35:58;;;;;;;10.37;5.73;;;11.70;88.80;;;;;;5018178;28;20199;-63
2022/11/02 06:38:24;;;;;;;6.47;5.27;;;11.80;88.90;;;;;;5037591;28;20183;-63
2022/11/02 06:40:54;;;;;;;7.53;5.73;;;11.80;88.80;;;;;;5032043;28;20179;-64
2022/11/02 06:43:20;;;;;;;7.40;5.73;;;11.80;88.70;;;;;;5034012;28;20195;-64
2022/11/02 06:45:46;;;;;;;6.17;4.90;;;11.80;88.60;;;;;;5043633;28;20254;-64
2022/11/02 06:48:12;;;;;;;10.20;5.33;;;11.80;88.50;;;;;;5054470;28;20210;-64
2022/11/02 06:50:37;;;;;;;6.30;4.70;;;11.80;88.40;;;;;;5037086;28;20183;-64
2022/11/02 06:53:03;;;;;;;7.13;4.80;;;11.80;88.20;;;;;;5053323;28;20179;-63
2022/11/02 06:55:29;;;;;;;8.37;6.03;;;11.80;88.20;;;;;;5032780;28;20620;-63
2022/11/02 06:57:54;;;;;;;8.23;5.33;;;11.80;88.20;;;;;;5052384;28;20225;-63
2022/11/02 07:00:20;;;;;;;9.43;4.93;;;11.80;88.30;;;;;;5026483;28;20199;-62
2022/11/02 07:02:57;;;;;;;7.97;5.43;;;11.80;88.30;;;;;;5037419;28;20187;-63
2022/11/02 07:05:23;;;;;;;8.20;5.70;;;11.80;88.40;;;;;;5021464;28;20252;-63
2022/11/02 07:07:52;;;;;;;11.87;5.13;;;11.80;88.40;;;;;;5033608;28;20214;-62
2022/11/02 07:10:17;;;;;;;6.67;4.70;;;11.80;88.30;;;;;;5026518;28;20195;-62
2022/11/02 07:12:43;;;;;;;5.80;4.57;;;11.80;88.30;;;;;;5013566;28;20190;-63
2022/11/02 07:15:09;;;;;;;6.70;4.73;;;11.80;88.40;;;;;;5026402;28;20222;-63
2022/11/02 07:17:38;;;;;;;7.53;5.00;;;11.90;88.40;;;;;;5036262;28;20252;-63
2022/11/02 07:20:05;;;;;;;7.90;5.50;;;11.90;88.40;;;;;;5030259;28;20194;-64
2022/11/02 07:22:30;;;;;;;8.43;5.20;;;11.90;88.60;;;;;;5019447;28;20195;-64
2022/11/02 07:24:56;;;;;;;9.03;5.50;;;11.90;88.60;;;;;;5030651;28;20210;-64
2022/11/02 07:27:22;;;;;;;7.53;5.17;;;12.00;88.80;;;;;;5023276;28;20215;-65
2022/11/02 07:29:47;;;;;;;7.40;5.13;;;12.00;88.80;;;;;;5026526;28;20195;-66
2022/11/02 07:32:13;;;;;;;8.77;5.77;;;12.00;88.80;;;;;;5037839;28;20184;-64
2022/11/02 07:34:40;;;;;;;9.57;5.40;;;12.00;88.80;;;;;;5031791;28;20188;-64
2022/11/02 07:37:05;;;;;;;10.80;5.10;;;12.10;88.80;;;;;;5026904;28;20249;-64
2022/11/02 07:39:31;;;;;;;9.10;5.77;;;12.10;88.80;;;;;;5034071;28;20195;-64
2022/11/02 07:41:57;;;;;;;6.90;4.80;;;12.10;88.90;;;;;;5027838;28;20191;-64
2022/11/02 07:44:22;;;;;;;5.73;4.80;;;12.20;88.90;;;;;;5034860;28;20195;-64
2022/11/02 07:46:48;;;;;;;9.77;5.90;;;12.20;89.10;;;;;;5041970;28;20237;-64
2022/11/02 07:49:14;;;;;;;6.30;5.57;;;12.20;89.10;;;;;;5035037;28;20179;-64
2022/11/02 07:51:39;;;;;;;13.17;5.90;;;12.30;89.10;;;;;;5031369;28;20206;-64
2022/11/02 07:54:05;;;;;;;10.37;5.30;;;12.30;89.20;;;;;;5022725;28;20274;-64
2022/11/02 07:56:30;;;;;;;7.57;5.03;;;12.30;89.20;;;;;;5030889;28;20333;-64
2022/11/02 07:58:56;;;;;;;11.37;6.63;;;12.30;89.20;;;;;;5022016;28;20281;-64
2022/11/02 08:01:22;;;;;;;10.07;6.10;;;12.40;89.00;;;;;;5024359;28;20289;-64
2022/11/02 08:03:48;;;;;;;7.53;5.60;;;12.40;89.10;;;;;;5045489;28;20225;-64
2022/11/02 08:06:14;;;;;;;9.30;5.33;;;12.50;89.00;;;;;;5043635;28;20266;-64
2022/11/02 08:08:39;;;;;;;9.87;6.43;;;12.50;89.00;;;;;;5019770;28;20183;-64
2022/11/02 08:11:07;;;;;;;10.33;5.57;;;12.50;89.00;;;;;;5030578;28;20240;-64
2022/11/02 08:13:33;;;;;;;10.83;5.93;;;12.60;88.90;;;;;;5028348;28;20257;-64
2022/11/02 08:15:58;;;;;;;25.57;17.60;;;12.60;89.00;;;;;;5020319;28;20186;-65
2022/11/02 08:18:26;;;;;;;11.13;9.13;;;12.60;88.80;;;;;;5020291;28;20186;-65
2022/11/02 08:20:53;;;;;;;10.67;7.37;;;12.70;88.70;;;;;;5023099;28;20188;-60
2022/11/02 08:23:19;;;;;;;7.93;6.00;;;12.80;88.50;;;;;;5036149;28;20198;-64
2022/11/02 08:25:47;;;;;;;12.30;6.73;;;12.70;88.30;;;;;;5023265;28;20278;-63
2022/11/02 08:28:15;;;;;;;7.37;5.37;;;12.80;88.40;;;;;;5047157;28;20207;-65
2022/11/02 08:30:41;;;;;;;12.77;5.80;;;12.80;88.40;;;;;;5034590;28;20289;-65
2022/11/02 08:33:11;;;;;;;6.70;5.33;;;12.90;88.40;;;;;;5058809;28;20273;-62
2022/11/02 08:35:38;;;;;;;8.13;5.10;;;12.90;88.20;;;;;;5037158;28;20329;-64
2022/11/02 08:38:05;;;;;;;7.07;4.87;;;13.00;88.20;;;;;;5030161;28;20277;-62
2022/11/02 08:40:31;;;;;;;6.10;5.30;;;13.10;88.00;;;;;;5045691;28;20197;-61
2022/11/02 08:42:59;;;;;;;10.30;5.67;;;13.10;88.00;;;;;;5037341;28;20201;-63
2022/11/02 08:45:26;;;;;;;12.33;6.13;;;13.30;87.90;;;;;;5021215;28;20183;-62
2022/11/02 08:47:52;;;;;;;8.70;5.47;;;13.30;87.80;;;;;;5035519;28;20218;-61
2022/11/02 08:50:18;;;;;;;5.40;4.37;;;13.50;87.80;;;;;;5031472;28;20313;-62
2022/11/02 08:52:43;;;;;;;6.80;4.77;;;13.60;87.60;;;;;;5020695;28;20257;-62
2022/11/02 08:55:09;;;;;;;6.03;4.43;;;13.80;87.50;;;;;;5039369;28;20199;-62
2022/11/02 08:57:52;;;;;;;5.83;4.63;;;13.80;87.20;;;;;;5037133;28;20199;-62
2022/11/02 09:00:22;;;;;;;4.83;4.13;;;13.90;86.80;;;;;;5032855;28;20182;-62
2022/11/02 09:03:09;;;;;;;7.73;5.13;;;14.00;86.80;;;;;;5022231;28;20187;-60
2022/11/02 09:05:45;;;;;;;6.87;5.10;;;14.10;86.80;;;;;;5034139;28;20277;-62
2022/11/02 09:08:16;;;;;;;5.83;4.30;;;14.20;86.10;;;;;;5012711;28;20261;-62
2022/11/02 09:10:42;;;;;;;6.40;4.60;;;14.30;86.20;;;;;;5029554;28;20222;-62
2022/11/02 09:13:11;;;;;;;5.13;4.23;;;14.40;86.20;;;;;;5018154;28;20195;-62
2022/11/02 09:15:38;;;;;;;7.63;4.30;;;14.50;86.20;;;;;;5045321;28;20210;-61
2022/11/02 09:18:05;;;;;;;7.57;4.73;;;14.60;86.20;;;;;;5039666;28;20198;-62
2022/11/02 09:20:32;;;;;;;5.73;4.33;;;14.60;85.90;;;;;;5020294;28;20185;-61
2022/11/02 09:22:57;;;;;;;8.57;5.20;;;14.70;85.70;;;;;;5015410;28;20191;-61
2022/11/02 09:25:23;;;;;;;6.70;4.20;;;14.80;85.10;;;;;;5021993;28;20184;-63
2022/11/02 09:27:53;;;;;;;5.70;4.70;;;14.90;84.70;;;;;;5015757;28;20223;-63
2022/11/02 09:30:20;;;;;;;8.40;4.60;;;15.10;84.60;;;;;;5034537;28;20188;-62
2022/11/02 09:32:56;;;;;;;11.23;4.97;;;15.20;84.40;;;;;;5024107;28;20202;-63
2022/11/02 09:35:22;;;;;;;8.43;5.20;;;15.30;84.50;;;;;;5029377;28;20201;-62
2022/11/02 09:37:48;;;;;;;6.97;4.63;;;15.30;83.00;;;;;;5018376;28;20263;-64
2022/11/02 09:40:21;;;;;;;8.60;4.73;;;15.40;83.60;;;;;;5044024;28;20286;-63
2022/11/02 09:43:19;;;;;;;9.67;5.23;;;15.50;83.80;;;;;;5033798;28;20316;-63
2022/11/02 09:45:58;;;;;;;9.37;5.47;;;15.60;82.70;;;;;;4997010;28;20210;-63
2022/11/02 09:48:34;;;;;;;7.07;3.83;;;15.60;81.50;;;;;;5037665;28;20214;-63
2022/11/02 09:51:07;;;;;;;7.77;4.27;;;15.60;82.10;;;;;;5044740;28;20179;-63
2022/11/02 09:53:43;;;;;;;5.53;4.13;;;15.70;82.30;;;;;;5034092;28;20190;-63
2022/11/02 09:56:09;;;;;;;5.13;4.47;;;15.70;82.70;;;;;;5033459;28;20238;-63
2022/11/02 09:58:38;;;;;;;9.10;4.53;;;15.80;82.70;;;;;;5020141;28;20277;-63
2022/11/02 10:01:33;;;;;;;7.60;4.63;;;15.70;81.90;;;;;;5026057;28;20194;-63
2022/11/02 10:04:28;;;;;;;5.73;4.73;;;15.70;81.90;;;;;;5061773;28;20301;-63
2022/11/02 10:07:21;;;;;;;8.83;4.90;;;15.70;81.90;;;;;;5031746;28;20211;-63
2022/11/02 10:10:16;;;;;;;8.33;5.80;;;15.70;81.60;;;;;;5028829;28;20249;-63
2022/11/02 10:13:10;;;;;;;8.60;5.93;;;15.70;80.50;;;;;;5019443;28;20184;-63
2022/11/02 10:15:53;;;;;;;8.70;5.60;;;15.80;80.40;;;;;;5025720;28;20183;-63
2022/11/02 10:18:25;;;;;;;12.40;7.10;;;15.80;80.90;;;;;;5048946;28;20199;-64
2022/11/02 10:20:56;;;;;;;9.57;6.53;;;15.90;79.80;;;;;;5019932;28;20194;-63
2022/11/02 10:23:55;;;;;;;11.77;7.37;;;15.80;80.30;;;;;;5081565;28;20187;-63
2022/11/02 10:26:35;;;;;;;13.27;7.77;;;15.90;79.90;;;;;;5028819;28;20202;-63
2022/11/02 10:29:14;;;;;;;16.33;9.13;;;16.00;80.50;;;;;;5036853;28;20236;-62
2022/11/02 10:31:39;;;;;;;13.40;8.57;;;16.10;79.50;;;;;;5038133;28;20217;-64
2022/11/02 10:34:27;;;;;;;14.23;8.57;;;16.20;80.10;;;;;;5032920;28;20191;-65
2022/11/02 10:37:37;;;;;;;17.73;9.30;;;16.20;80.40;;;;;;5040738;28;20215;-64
2022/11/02 10:40:18;;;;;;;12.83;8.73;;;16.40;79.70;;;;;;5024655;28;20253;-65
2022/11/02 10:43:15;;;;;;;14.90;8.93;;;16.70;79.20;;;;;;5038895;28;20186;-65
2022/11/02 10:46:05;;;;;;;8.10;7.20;;;16.80;78.50;;;;;;5036499;28;20198;-64
2022/11/02 10:48:34;;;;;;;13.40;7.73;;;16.90;79.00;;;;;;5023709;28;20219;-64
2022/11/02 10:51:11;;;;;;;11.20;8.20;;;17.00;78.20;;;;;;5043415;28;20191;-65
2022/11/02 10:53:42;;;;;;;15.63;8.00;;;17.30;76.60;;;;;;5073236;28;20229;-65
2022/11/02 10:56:22;;;;;;;8.40;6.90;;;17.50;76.80;;;;;;5034621;28;20224;-63
2022/11/02 10:59:15;;;;;;;7.87;5.87;;;17.80;75.40;;;;;;5033328;28;20193;-64
2022/11/02 11:01:46;;;;;;;11.93;6.73;;;17.80;75.30;;;;;;5049912;28;20195;-64
2022/11/02 11:04:25;;;;;;;10.20;6.80;;;18.00;75.80;;;;;;5040146;28;20255;-64
2022/11/02 11:06:52;;;;;;;12.27;6.40;;;18.20;73.90;;;;;;5036231;28;20235;-64
2022/11/02 11:09:30;;;;;;;11.07;6.17;;;18.30;70.70;;;;;;5052461;28;20206;-63
2022/11/02 11:12:03;;;;;;;8.03;5.50;;;18.30;70.40;;;;;;5040699;28;20171;-64
2022/11/02 11:14:37;;;;;;;11.00;5.23;;;18.40;71.00;;;;;;5035380;28;20209;-63
2022/11/02 11:17:14;;;;;;;7.20;4.77;;;18.50;71.60;;;;;;5035491;28;20179;-65
2022/11/02 11:19:52;;;;;;;7.87;4.63;;;18.50;70.60;;;;;;5042556;28;20244;-66
2022/11/02 11:22:29;;;;;;;12.80;4.73;;;18.60;71.90;;;;;;5029801;28;20184;-65
2022/11/02 11:25:26;;;;;;;9.87;4.60;;;18.70;68.90;;;;;;5019866;28;20261;-64
2022/11/02 11:27:53;;;;;;;5.57;3.70;;;18.80;68.40;;;;;;5029454;28;20211;-64
2022/11/02 11:30:34;;;;;;;7.93;4.10;;;18.90;67.10;;;;;;5038966;28;20181;-66
2022/11/02 11:33:02;;;;;;;7.07;4.17;;;19.00;69.20;;;;;;5035680;28;20188;-63
2022/11/02 11:35:32;;;;;;;6.47;4.13;;;19.10;69.90;;;;;;5034713;28;20183;-63
2022/11/02 11:38:01;;;;;;;10.23;4.50;;;19.20;70.80;;;;;;5044774;28;20664;-65
2022/11/02 11:40:38;;;;;;;9.83;5.00;;;19.20;70.30;;;;;;5040806;28;20205;-63
2022/11/02 11:43:10;;;;;;;6.53;3.90;;;19.30;70.50;;;;;;5035125;28;20658;-63
2022/11/02 11:45:37;;;;;;;13.23;4.77;;;19.30;69.60;;;;;;5039156;28;20183;-64
2022/11/02 11:48:21;;;;;;;11.47;5.40;;;19.10;66.80;;;;;;5038173;28;20219;-63
2022/11/02 11:50:48;;;;;;;10.07;4.90;;;19.10;68.80;;;;;;5040057;28;20235;-63
2022/11/02 11:53:17;;;;;;;9.10;4.60;;;19.10;69.20;;;;;;5058282;28;20271;-63
2022/11/02 11:55:58;;;;;;;6.37;4.20;;;19.20;69.40;;;;;;5041848;28;20281;-63
2022/11/02 11:58:33;;;;;;;8.23;3.90;;;19.30;69.60;;;;;;5036547;28;20186;-64
2022/11/02 12:01:13;;;;;;;6.97;4.23;;;19.40;69.50;;;;;;5036300;28;20213;-62
2022/11/02 12:04:00;;;;;;;8.97;4.30;;;19.50;69.60;;;;;;5029266;28;20180;-63
2022/11/02 12:06:31;;;;;;;5.40;3.43;;;19.30;68.70;;;;;;5046661;28;20190;-62
2022/11/02 12:09:09;;;;;;;13.27;4.10;;;19.30;69.00;;;;;;5035755;28;20198;-63
2022/11/02 12:11:40;;;;;;;6.70;3.40;;;19.30;67.70;;;;;;5035466;28;20181;-62
2022/11/02 12:14:22;;;;;;;9.27;3.90;;;19.30;66.80;;;;;;5043979;28;20191;-62
2022/11/02 12:17:19;;;;;;;6.23;3.77;;;19.30;66.40;;;;;;5037660;28;20190;-62
2022/11/02 12:20:10;;;;;;;8.30;3.77;;;19.30;67.60;;;;;;5028066;28;20196;-63
2022/11/02 12:22:55;;;;;;;8.03;3.80;;;19.40;66.00;;;;;;5018127;28;20183;-63
2022/11/02 12:25:41;;;;;;;5.80;3.43;;;19.30;65.70;;;;;;5058933;28;20229;-63
2022/11/02 12:28:41;;;;;;;10.03;4.30;;;19.30;66.70;;;;;;5066707;28;20207;-63
2022/11/02 12:31:32;;;;;;;8.13;4.23;;;19.30;67.40;;;;;;5006209;28;20191;-63
2022/11/02 12:34:16;;;;;;;9.20;3.57;;;19.30;65.70;;;;;;5038457;28;20172;-63
2022/11/02 12:37:07;;;;;;;9.17;3.90;;;19.40;66.80;;;;;;5051902;28;20183;-63
2022/11/02 12:39:42;;;;;;;5.43;3.53;;;19.20;65.20;;;;;;5035662;28;20215;-63
2022/11/02 12:42:31;;;;;;;6.03;3.80;;;19.20;66.40;;;;;;5036714;28;20187;-63
2022/11/02 12:45:21;;;;;;;9.07;3.63;;;19.20;66.20;;;;;;5055413;28;20184;-63
2022/11/02 12:48:04;;;;;;;8.27;3.50;;;19.30;66.70;;;;;;5012887;28;20212;-63
2022/11/02 12:50:44;;;;;;;9.43;3.40;;;19.30;66.80;;;;;;5033122;28;20182;-62
2022/11/02 12:53:16;;;;;;;7.50;3.23;;;19.30;65.70;;;;;;5034072;28;20286;-63
2022/11/02 12:55:45;;;;;;;11.97;3.63;;;19.50;67.50;;;;;;5041008;28;20239;-63
2022/11/02 12:58:28;;;;;;;6.30;3.73;;;19.70;66.90;;;;;;5034450;28;20646;-62
2022/11/02 13:01:19;;;;;;;9.43;3.70;;;19.70;64.50;;;;;;5033103;28;20187;-63
2022/11/02 13:04:12;;;;;;;6.80;3.60;;;19.70;65.60;;;;;;5045800;28;20192;-62
2022/11/02 13:06:45;;;;;;;5.50;3.97;;;19.60;66.40;;;;;;5044296;28;20211;-62
2022/11/02 13:09:29;;;;;;;7.50;3.77;;;19.40;66.40;;;;;;5030395;28;20556;-62
2022/11/02 13:12:05;;;;;;;6.23;4.03;;;19.50;67.80;;;;;;5038087;28;20179;-62
2022/11/02 13:14:39;;;;;;;7.33;3.73;;;19.40;68.10;;;;;;5044479;28;20174;-63
2022/11/02 13:17:10;;;;;;;5.80;3.47;;;19.30;66.40;;;;;;5039583;28;20237;-63
2022/11/02 13:19:50;;;;;;;8.47;3.80;;;19.30;67.00;;;;;;5033194;28;20209;-63
2022/11/02 13:22:19;;;;;;;4.63;3.37;;;19.30;67.90;;;;;;5033740;28;20221;-63
2022/11/02 13:24:51;;;;;;;7.20;3.00;;;19.30;68.20;;;;;;5037279;28;20225;-63